Time;durP1;ratioP1;P1;durP2;ratioP2;P2;SDS_P1;SDS_P2;PMS_P1;PMS_P2;Temp;Humidity;BMP_temperature;BMP_pressure;BME280_temperature;BME280_humidity;BME280_pressure;Samples;Min_cycle;Max_cycle;Signal;HPM_P1;HPM_P2
2023/04/30 00:03:42;;;;;;;7.80;4.87;;;;;;;6.58;58.47;101199.19;20982715;28;20508;-82
2023/04/30 00:13:44;;;;;;;6.07;5.00;;;;;;;6.61;58.42;101202.22;20973409;28;20656;-84
2023/04/30 00:23:46;;;;;;;6.43;5.00;;;;;;;6.67;58.84;101205.84;21002621;28;20222;-84
2023/04/30 00:33:49;;;;;;;11.13;5.47;;;;;;;6.36;60.58;101216.44;20996751;28;20191;-85
2023/04/30 00:43:52;;;;;;;9.43;5.67;;;;;;;7.00;56.77;101220.94;20962971;28;20211;-81
2023/04/30 00:53:54;;;;;;;6.60;5.57;;;;;;;6.54;58.45;101218.53;20990681;28;20534;-83
2023/04/30 01:03:56;;;;;;;10.43;6.13;;;;;;;6.34;58.50;101219.53;20992974;28;20215;-82
2023/04/30 01:14:07;;;;;;;8.93;6.43;;;;;;;6.52;57.01;101218.00;20953901;28;20562;-82
2023/04/30 01:24:31;;;;;;;9.87;6.53;;;;;;;6.07;58.92;101216.38;20966002;28;20267;-85
2023/04/30 01:34:33;;;;;;;7.20;6.10;;;;;;;5.95;58.74;101215.88;21004290;28;20202;-78
2023/04/30 01:45:11;;;;;;;9.67;7.50;;;;;;;5.87;60.03;101222.94;21001056;28;20227;-85
2023/04/30 01:55:19;;;;;;;12.77;6.97;;;;;;;5.97;59.44;101225.69;20962841;28;20241;-83
2023/04/30 02:05:21;;;;;;;8.97;7.53;;;;;;;5.67;59.27;101225.84;20984124;28;20215;-84
2023/04/30 02:15:23;;;;;;;8.10;6.43;;;;;;;5.48;60.21;101234.06;20983988;28;20227;-84
2023/04/30 02:25:25;;;;;;;8.77;6.37;;;;;;;5.69;59.10;101236.75;20980770;28;20214;-84
2023/04/30 02:35:27;;;;;;;8.73;7.50;;;;;;;5.56;59.27;101232.63;21000349;28;20182;-84
2023/04/30 02:45:30;;;;;;;7.43;6.57;;;;;;;5.38;59.63;101236.03;21023187;28;20215;-84
2023/04/30 02:55:32;;;;;;;9.37;6.83;;;;;;;5.35;59.75;101240.25;20999993;28;20195;-83
2023/04/30 03:05:35;;;;;;;9.37;7.27;;;;;;;5.17;61.62;101240.84;20975745;28;20222;-84
2023/04/30 03:15:37;;;;;;;8.77;7.03;;;;;;;5.41;59.49;101232.72;20918434;28;20266;-84
2023/04/30 03:25:39;;;;;;;9.47;6.93;;;;;;;4.91;60.43;101238.09;20884803;28;20220;-83
2023/04/30 03:35:41;;;;;;;10.37;8.57;;;;;;;5.07;61.35;101238.09;20875730;28;20199;-84
2023/04/30 03:45:43;;;;;;;8.67;7.77;;;;;;;5.19;59.25;101225.44;20896497;28;20281;-83
2023/04/30 03:55:47;;;;;;;11.37;8.23;;;;;;;4.91;61.20;101234.47;20893380;28;20719;-84
2023/04/30 04:05:50;;;;;;;10.80;7.93;;;;;;;4.67;60.94;101247.38;20884694;28;20220;-82
2023/04/30 04:15:52;;;;;;;10.87;8.73;;;;;;;4.94;60.58;101247.91;20858471;28;20208;-78
2023/04/30 04:25:56;;;;;;;12.93;10.17;;;;;;;4.83;61.85;101254.63;20879004;28;20269;-83
2023/04/30 04:35:59;;;;;;;15.27;10.43;;;;;;;4.54;63.01;101258.00;20869063;28;20196;-83
2023/04/30 04:46:04;;;;;;;11.87;9.20;;;;;;;4.55;62.52;101270.88;20862420;28;20228;-78
2023/04/30 04:56:07;;;;;;;9.70;8.67;;;;;;;5.21;61.89;101262.41;20883670;28;20191;-82
2023/04/30 05:06:09;;;;;;;11.90;10.10;;;;;;;5.20;62.24;101260.72;20867483;28;20729;-78
2023/04/30 05:16:11;;;;;;;13.43;10.40;;;;;;;5.19;62.74;101264.63;20881612;28;20429;-84
2023/04/30 05:26:13;;;;;;;12.50;10.17;;;;;;;5.26;62.53;101276.41;20893911;28;20215;-83
2023/04/30 05:36:15;;;;;;;12.50;9.60;;;;;;;5.96;60.78;101274.47;20877123;28;20208;-80
2023/04/30 05:46:17;;;;;;;13.37;10.57;;;;;;;5.66;61.65;101291.44;20893137;28;20219;-80
2023/04/30 05:56:20;;;;;;;10.07;8.50;;;;;;;5.88;61.04;101286.28;20878846;28;20242;-79
2023/04/30 06:06:22;;;;;;;8.63;7.73;;;;;;;5.84;61.10;101285.16;20857032;28;20573;-83
2023/04/30 06:16:24;;;;;;;10.13;8.23;;;;;;;6.23;59.71;101284.41;20917428;28;20523;-82
2023/04/30 06:26:27;;;;;;;12.00;8.10;;;;;;;6.59;58.77;101283.03;20941295;28;20247;-80
2023/04/30 06:36:30;;;;;;;10.10;7.83;;;;;;;7.40;56.65;101287.91;20964215;28;20646;-81
2023/04/30 06:46:33;;;;;;;11.13;8.23;;;;;;;6.45;59.77;101275.56;20957238;28;20211;-78
2023/04/30 06:56:35;;;;;;;10.47;8.60;;;;;;;7.01;56.67;101267.53;20942319;28;20488;-80
2023/04/30 07:06:37;;;;;;;10.87;8.10;;;;;;;7.33;56.36;101281.81;20960398;28;20246;-77
2023/04/30 07:16:40;;;;;;;11.57;8.17;;;;;;;7.52;54.86;101276.25;20893002;28;20217;-78
2023/04/30 07:26:42;;;;;;;8.90;8.00;;;;;;;7.94;54.04;101261.41;20862355;28;20300;-80
2023/04/30 07:36:44;;;;;;;8.27;7.47;;;;;;;8.09;53.75;101260.34;20860981;28;20252;-77
2023/04/30 07:46:46;;;;;;;15.57;8.00;;;;;;;8.84;52.26;101258.31;20873146;28;20243;-77
2023/04/30 07:56:48;;;;;;;11.67;7.97;;;;;;;9.05;50.53;101255.13;20874415;28;20220;-78
2023/04/30 08:06:50;;;;;;;7.90;7.10;;;;;;;8.71;51.76;101267.56;20897629;28;20280;-82
2023/04/30 08:16:53;;;;;;;9.00;7.93;;;;;;;9.02;50.63;101267.03;20942718;28;20268;-79
2023/04/30 08:26:56;;;;;;;7.53;6.73;;;;;;;9.61;49.90;101256.91;20972906;28;20727;-78
2023/04/30 08:36:58;;;;;;;8.33;5.07;;;;;;;10.23;46.61;101256.06;20985909;28;20238;-81
2023/04/30 08:47:00;;;;;;;8.10;5.77;;;;;;;10.51;46.52;101270.13;20974142;28;20243;-80
2023/04/30 08:57:03;;;;;;;6.18;5.22;;;;;;;9.96;46.32;101269.41;20971856;28;20257;-83
2023/04/30 09:07:06;;;;;;;5.03;4.33;;;;;;;10.51;46.75;101254.03;20955891;28;20280;-78
2023/04/30 09:17:20;;;;;;;6.03;5.43;;;;;;;11.20;45.38;101253.66;20901853;28;20332;-82
2023/04/30 09:27:23;;;;;;;6.50;4.43;;;;;;;11.07;43.45;101237.63;20871907;28;20249;-83
2023/04/30 09:37:35;;;;;;;6.15;4.68;;;;;;;11.81;44.03;101232.13;20876892;28;20191;-82
2023/04/30 09:47:38;;;;;;;3.83;3.53;;;;;;;11.30;42.50;101230.75;20891194;28;20975;-82
2023/04/30 09:57:40;;;;;;;3.88;3.47;;;;;;;12.24;42.15;101226.56;20898546;28;20415;-80
2023/04/30 10:07:43;;;;;;;4.38;3.95;;;;;;;11.52;41.92;101213.75;20886975;28;20281;-77
2023/04/30 10:18:10;;;;;;;5.82;3.88;;;;;;;12.08;41.75;101197.06;20883036;28;20224;-77
2023/04/30 10:28:12;;;;;;;3.40;3.10;;;;;;;12.23;39.38;101200.25;20901662;28;20224;-77
2023/04/30 10:38:20;;;;;;;2.35;2.00;;;;;;;12.59;39.61;101193.41;20904295;28;20592;-77
2023/04/30 10:48:24;;;;;;;4.75;4.25;;;;;;;12.88;41.26;101173.69;20912920;28;20235;-83
2023/04/30 10:58:30;;;;;;;4.50;4.10;;;;;;;12.20;39.07;101158.47;20883661;28;20250;-79
2023/04/30 11:08:33;;;;;;;3.58;3.28;;;;;;;12.84;39.36;101160.50;20869737;28;20226;-78
2023/04/30 11:18:45;;;;;;;4.50;2.80;;;;;;;12.72;39.31;101147.06;20960481;28;20223;-83
2023/04/30 11:28:51;;;;;;;2.70;2.50;;;;;;;13.74;37.63;101130.72;20965077;28;20215;-79
2023/04/30 11:38:53;;;;;;;2.78;1.95;;;;;;;13.86;36.51;101129.16;20993480;28;20191;-84
2023/04/30 11:48:56;;;;;;;3.17;2.40;;;;;;;14.07;36.68;101115.81;20962622;28;20698;-77
2023/04/30 11:58:58;;;;;;;3.28;2.20;;;;;;;13.92;37.82;101099.41;20983875;28;20191;-77
2023/04/30 12:09:02;;;;;;;2.30;2.10;;;;;;;14.11;36.09;101105.41;20983490;28;20513;-84
2023/04/30 12:19:05;;;;;;;0.98;0.90;;;;;;;14.12;35.03;101105.06;20887792;28;20220;-81
2023/04/30 12:29:13;;;;;;;0.60;0.60;;;;;;;14.95;33.82;101086.13;20882236;28;20281;-78
2023/04/30 12:39:16;;;;;;;2.47;1.90;;;;;;;14.70;34.00;101079.59;20892747;28;20188;-78
2023/04/30 12:49:26;;;;;;;1.08;1.08;;;;;;;14.79;34.85;101072.63;20871117;28;20269;-79
2023/04/30 12:59:33;;;;;;;2.92;2.10;;;;;;;14.96;34.04;101070.75;20886361;28;20616;-78
2023/04/30 13:09:36;;;;;;;2.92;1.52;;;;;;;14.55;33.93;101066.06;20885627;28;20293;-78
2023/04/30 13:19:39;;;;;;;1.73;1.00;;;;;;;14.15;34.41;101063.78;20863450;28;20220;-81
2023/04/30 13:29:41;;;;;;;2.60;1.10;;;;;;;14.49;34.12;101057.75;20869307;28;20204;-78
2023/04/30 13:39:43;;;;;;;2.22;0.93;;;;;;;15.18;34.22;101034.13;20873977;28;20192;-78
2023/04/30 13:49:45;;;;;;;1.60;0.77;;;;;;;15.39;31.67;101030.34;20887434;28;20220;-78
2023/04/30 13:59:48;;;;;;;2.03;1.05;;;;;;;15.38;31.10;101012.44;20888728;28;20192;-79
2023/04/30 14:09:50;;;;;;;0.77;0.75;;;;;;;15.02;32.28;101007.59;20875978;28;20223;-78
2023/04/30 14:19:53;;;;;;;2.58;0.60;;;;;;;15.28;31.61;100995.03;20877764;28;20292;-81
2023/04/30 14:29:56;;;;;;;1.05;0.50;;;;;;;15.03;33.23;100977.97;20888145;28;20239;-80
2023/04/30 14:40:00;;;;;;;2.20;0.52;;;;;;;15.53;32.26;100971.84;20861855;28;20192;-77
2023/04/30 14:50:03;;;;;;;1.00;0.40;;;;;;;15.07;32.20;100973.22;20849479;28;20270;-78
2023/04/30 15:00:05;;;;;;;1.40;0.30;;;;;;;14.41;31.13;100962.09;20873737;28;20192;-78
2023/04/30 15:10:08;;;;;;;1.02;0.32;;;;;;;15.32;31.80;100939.06;20869567;28;20906;-78
2023/04/30 15:20:10;;;;;;;4.15;0.40;;;;;;;15.10;31.83;100929.88;20876437;28;20230;-77
2023/04/30 15:30:12;;;;;;;1.55;0.30;;;;;;;15.40;31.21;100932.44;20890999;28;20509;-79
2023/04/30 15:40:15;;;;;;;1.70;0.40;;;;;;;15.59;31.05;100918.34;20894346;28;20196;-77
2023/04/30 15:50:17;;;;;;;2.10;0.45;;;;;;;14.35;33.65;100906.69;20886815;28;20266;-77
2023/04/30 16:00:19;;;;;;;2.75;0.60;;;;;;;14.37;33.19;100895.78;20908600;28;20216;-82
2023/04/30 16:10:21;;;;;;;1.23;0.20;;;;;;;14.43;31.48;100900.06;20893667;28;20228;-77
2023/04/30 16:20:24;;;;;;;1.15;0.32;;;;;;;14.07;33.29;100888.69;20862450;28;20196;-82
2023/04/30 16:30:26;;;;;;;3.03;0.38;;;;;;;13.92;31.89;100890.19;20872549;28;20246;-80
2023/04/30 16:40:29;;;;;;;0.40;0.20;;;;;;;14.40;32.37;100861.00;20860780;28;20257;-80
2023/04/30 16:50:32;;;;;;;3.13;0.40;;;;;;;14.57;32.40;100856.28;20860363;28;20220;-81
2023/04/30 17:00:34;;;;;;;1.42;0.57;;;;;;;14.22;33.45;100853.94;20874550;28;20212;-82
2023/04/30 17:10:37;;;;;;;2.35;0.65;;;;;;;14.28;32.33;100849.66;20847359;28;21137;-82
2023/04/30 17:20:40;;;;;;;2.95;0.50;;;;;;;14.20;35.50;100853.44;20863928;28;20196;-85
2023/04/30 17:30:43;;;;;;;0.73;0.30;;;;;;;13.76;35.46;100850.31;20883730;28;20216;-83
2023/04/30 17:40:45;;;;;;;1.42;0.70;;;;;;;13.64;32.88;100835.25;20866387;28;20228;-79
2023/04/30 17:50:47;;;;;;;2.78;1.02;;;;;;;13.26;34.65;100839.16;20865561;28;20274;-80
2023/04/30 18:00:49;;;;;;;3.17;0.90;;;;;;;12.88;36.26;100833.63;20896872;28;20234;-81
2023/04/30 18:10:52;;;;;;;0.90;0.60;;;;;;;13.41;34.15;100834.84;20875386;28;20226;-82
2023/04/30 18:20:54;;;;;;;2.13;0.40;;;;;;;13.27;34.73;100826.63;20980958;28;20264;-78
2023/04/30 18:30:56;;;;;;;3.00;0.82;;;;;;;13.11;34.85;100825.63;20971893;28;20681;-81
2023/04/30 18:40:59;;;;;;;3.50;1.60;;;;;;;12.90;35.76;100819.13;20948063;28;20226;-81
2023/04/30 18:51:01;;;;;;;2.10;0.95;;;;;;;12.54;37.34;100822.56;20968607;28;20214;-82
2023/04/30 19:01:04;;;;;;;2.85;1.13;;;;;;;12.02;38.90;100826.53;20930081;28;20206;-82
2023/04/30 19:11:07;;;;;;;3.90;1.02;;;;;;;12.10;39.08;100833.28;21011683;28;20526;-83
2023/04/30 19:21:11;;;;;;;2.28;1.10;;;;;;;12.10;38.42;100840.94;20966465;28;20672;-82
2023/04/30 19:31:14;;;;;;;2.92;1.13;;;;;;;11.88;39.62;100839.22;20971600;28;20234;-81
2023/04/30 19:41:16;;;;;;;2.45;1.20;;;;;;;11.53;39.91;100850.63;20976596;28;20203;-81
2023/04/30 19:51:18;;;;;;;4.93;1.77;;;;;;;10.91;40.28;100839.72;20987098;28;20288;-83
2023/04/30 20:01:20;;;;;;;3.67;1.45;;;;;;;10.57;42.56;100857.50;20986112;28;20315;-78
2023/04/30 20:11:23;;;;;;;2.40;1.33;;;;;;;10.87;41.78;100850.00;20961612;28;20230;-80
2023/04/30 20:21:27;;;;;;;5.13;1.77;;;;;;;10.85;41.46;100838.25;20989039;28;20195;-81
2023/04/30 20:31:31;;;;;;;3.00;1.85;;;;;;;10.89;41.25;100835.56;20971730;28;20241;-78
2023/04/30 20:41:34;;;;;;;5.68;2.13;;;;;;;10.49;41.92;100838.53;20991360;28;20217;-82
2023/04/30 20:51:39;;;;;;;4.60;2.60;;;;;;;10.69;43.29;100841.88;21003878;28;20819;-80
2023/04/30 21:01:41;;;;;;;8.57;2.93;;;;;;;10.60;42.92;100827.78;20991245;28;20288;-82
2023/04/30 21:11:44;;;;;;;8.00;3.05;;;;;;;10.45;43.81;100828.22;20971110;28;20636;-80
2023/04/30 21:21:46;;;;;;;7.13;2.75;;;;;;;10.32;43.36;100823.53;21022372;28;20190;-81
2023/04/30 21:31:48;;;;;;;5.13;2.33;;;;;;;10.14;43.73;100820.66;20972793;28;20264;-78
2023/04/30 21:41:50;;;;;;;6.50;3.00;;;;;;;10.20;43.73;100818.53;20988015;28;20187;-77
2023/04/30 21:51:52;;;;;;;6.23;2.70;;;;;;;9.96;44.46;100812.47;20986363;28;20215;-77
2023/04/30 22:01:55;;;;;;;4.40;3.05;;;;;;;9.78;45.27;100794.66;20956036;28;20237;-76
2023/04/30 22:11:58;;;;;;;5.55;3.22;;;;;;;9.80;44.88;100781.91;20972316;28;20527;-83
2023/04/30 22:22:00;;;;;;;6.78;3.00;;;;;;;9.57;45.31;100778.28;20988480;28;20595;-77
2023/04/30 22:32:03;;;;;;;4.63;2.80;;;;;;;9.22;46.55;100765.19;20986792;28;20647;-77
2023/04/30 22:42:05;;;;;;;7.13;2.85;;;;;;;9.52;45.61;100758.72;20982170;28;20269;-80
2023/04/30 22:52:07;;;;;;;3.33;2.58;;;;;;;9.08;47.00;100756.00;20971142;28;20211;-76
2023/04/30 23:02:09;;;;;;;5.43;2.77;;;;;;;9.25;46.20;100753.28;20954973;28;20607;-81
2023/04/30 23:12:11;;;;;;;5.35;2.63;;;;;;;9.30;45.57;100746.69;20998966;28;20675;-76
2023/04/30 23:22:13;;;;;;;3.75;2.75;;;;;;;9.27;45.22;100734.06;20986760;28;20191;-77
2023/04/30 23:32:15;;;;;;;8.70;3.33;;;;;;;9.06;45.55;100732.94;20979365;28;20612;-80
2023/04/30 23:42:18;;;;;;;5.78;3.50;;;;;;;8.99;48.30;100726.94;20994977;28;20237;-77
2023/04/30 23:52:20;;;;;;;5.53;3.53;;;;;;;8.52;47.70;100717.16;20959569;28;20211;-77
